sensor_id;sensor_type;location;lat;lon;timestamp;pressure;altitude;pressure_sealevel;temperature;humidity
16481;BME280;44634;54.110;12.138;2023-03-23T00:01:56;99873.97;;;13.88;100.00
16481;BME280;44634;54.110;12.138;2023-03-23T00:04:23;99879.81;;;14.07;100.00
16481;BME280;44634;54.110;12.138;2023-03-23T00:06:52;99884.19;;;13.62;100.00
16481;BME280;44634;54.110;12.138;2023-03-23T00:09:20;99876.22;;;13.62;100.00
16481;BME280;44634;54.110;12.138;2023-03-23T00:11:50;99871.22;;;13.59;100.00
16481;BME280;44634;54.110;12.138;2023-03-23T00:14:17;99912.97;;;14.11;100.00
16481;BME280;44634;54.110;12.138;2023-03-23T00:16:48;99930.72;;;14.33;100.00
16481;BME280;44634;54.110;12.138;2023-03-23T00:19:15;99916.44;;;13.74;100.00
16481;BME280;44634;54.110;12.138;2023-03-23T00:21:45;99900.03;;;13.93;100.00
16481;BME280;44634;54.110;12.138;2023-03-23T00:24:14;99904.16;;;13.95;100.00
16481;BME280;44634;54.110;12.138;2023-03-23T00:26:45;99870.44;;;13.73;100.00
16481;BME280;44634;54.110;12.138;2023-03-23T00:29:13;99879.19;;;13.59;100.00
16481;BME280;44634;54.110;12.138;2023-03-23T00:31:41;99833.66;;;13.24;100.00
16481;BME280;44634;54.110;12.138;2023-03-23T00:34:13;99809.41;;;13.27;100.00
16481;BME280;44634;54.110;12.138;2023-03-23T00:36:45;99805.09;;;13.49;100.00
16481;BME280;44634;54.110;12.138;2023-03-23T00:39:11;99817.59;;;13.40;100.00
16481;BME280;44634;54.110;12.138;2023-03-23T00:41:41;99787.81;;;13.30;100.00
16481;BME280;44634;54.110;12.138;2023-03-23T00:44:09;99777.22;;;13.45;100.00
16481;BME280;44634;54.110;12.138;2023-03-23T00:46:44;99762.44;;;13.28;100.00
16481;BME280;44634;54.110;12.138;2023-03-23T00:49:12;99732.41;;;12.81;100.00
16481;BME280;44634;54.110;12.138;2023-03-23T00:51:39;99726.75;;;12.85;100.00
16481;BME280;44634;54.110;12.138;2023-03-23T00:54:06;99697.09;;;12.58;100.00
16481;BME280;44634;54.110;12.138;2023-03-23T00:56:33;99676.81;;;12.42;100.00
16481;BME280;44634;54.110;12.138;2023-03-23T00:59:00;99676.63;;;12.44;100.00
16481;BME280;44634;54.110;12.138;2023-03-23T01:01:28;99667.22;;;12.41;100.00
16481;BME280;44634;54.110;12.138;2023-03-23T01:03:55;99653.16;;;12.64;100.00
16481;BME280;44634;54.110;12.138;2023-03-23T01:06:27;99649.78;;;12.47;100.00
16481;BME280;44634;54.110;12.138;2023-03-23T01:08:56;99643.13;;;12.51;100.00
16481;BME280;44634;54.110;12.138;2023-03-23T01:11:23;99663.84;;;12.25;100.00
16481;BME280;44634;54.110;12.138;2023-03-23T01:13:50;99643.88;;;12.37;100.00
16481;BME280;44634;54.110;12.138;2023-03-23T01:16:17;99641.41;;;12.35;100.00
16481;BME280;44634;54.110;12.138;2023-03-23T01:18:45;99638.19;;;12.48;100.00
16481;BME280;44634;54.110;12.138;2023-03-23T01:21:13;99639.81;;;12.26;100.00
16481;BME280;44634;54.110;12.138;2023-03-23T01:23:41;99628.41;;;12.48;100.00
16481;BME280;44634;54.110;12.138;2023-03-23T01:26:10;99625.69;;;12.34;100.00
16481;BME280;44634;54.110;12.138;2023-03-23T01:28:38;99621.13;;;12.42;100.00
16481;BME280;44634;54.110;12.138;2023-03-23T01:31:06;99620.38;;;12.34;100.00
16481;BME280;44634;54.110;12.138;2023-03-23T01:33:34;99630.88;;;12.50;100.00
16481;BME280;44634;54.110;12.138;2023-03-23T01:36:04;99648.84;;;12.09;100.00
16481;BME280;44634;54.110;12.138;2023-03-23T01:38:32;99640.78;;;12.33;100.00
16481;BME280;44634;54.110;12.138;2023-03-23T01:40:59;99671.84;;;12.16;100.00
16481;BME280;44634;54.110;12.138;2023-03-23T01:43:26;99710.50;;;12.34;100.00
16481;BME280;44634;54.110;12.138;2023-03-23T01:45:53;99738.91;;;12.17;100.00
16481;BME280;44634;54.110;12.138;2023-03-23T01:48:23;99749.34;;;12.18;100.00
16481;BME280;44634;54.110;12.138;2023-03-23T01:50:55;100178.25;;;11.89;100.00
16481;BME280;44634;54.110;12.138;2023-03-23T01:53:29;100109.13;;;12.33;100.00
16481;BME280;44634;54.110;12.138;2023-03-23T01:55:57;100041.00;;;12.25;100.00
16481;BME280;44634;54.110;12.138;2023-03-23T01:58:27;100033.19;;;11.99;100.00
16481;BME280;44634;54.110;12.138;2023-03-23T02:00:55;100008.69;;;12.54;100.00
16481;BME280;44634;54.110;12.138;2023-03-23T02:03:24;100011.03;;;11.92;100.00
16481;BME280;44634;54.110;12.138;2023-03-23T02:05:51;100008.03;;;12.52;100.00
16481;BME280;44634;54.110;12.138;2023-03-23T02:08:19;100002.41;;;12.06;100.00
16481;BME280;44634;54.110;12.138;2023-03-23T02:10:47;100021.38;;;11.77;100.00
16481;BME280;44634;54.110;12.138;2023-03-23T02:13:15;100027.06;;;11.99;100.00
16481;BME280;44634;54.110;12.138;2023-03-23T02:15:59;100031.75;;;12.21;100.00
16481;BME280;44634;54.110;12.138;2023-03-23T02:18:35;100028.53;;;11.85;100.00
16481;BME280;44634;54.110;12.138;2023-03-23T02:21:25;100034.88;;;12.25;100.00
16481;BME280;44634;54.110;12.138;2023-03-23T02:24:15;100035.69;;;12.09;100.00
16481;BME280;44634;54.110;12.138;2023-03-23T02:26:54;100030.25;;;12.35;100.00
16481;BME280;44634;54.110;12.138;2023-03-23T02:32:45;100038.84;;;11.88;100.00
16481;BME280;44634;54.110;12.138;2023-03-23T02:35:24;100060.06;;;12.20;100.00
16481;BME280;44634;54.110;12.138;2023-03-23T02:37:57;100329.41;;;11.87;100.00
16481;BME280;44634;54.110;12.138;2023-03-23T02:40:30;100357.00;;;12.11;100.00
16481;BME280;44634;54.110;12.138;2023-03-23T02:43:00;100328.44;;;11.97;100.00
16481;BME280;44634;54.110;12.138;2023-03-23T02:45:29;100302.56;;;12.16;100.00
16481;BME280;44634;54.110;12.138;2023-03-23T02:47:58;100291.25;;;12.06;100.00
16481;BME280;44634;54.110;12.138;2023-03-23T02:50:29;100253.81;;;12.09;100.00
16481;BME280;44634;54.110;12.138;2023-03-23T02:52:59;100239.63;;;12.18;100.00
16481;BME280;44634;54.110;12.138;2023-03-23T02:55:27;100240.41;;;12.11;100.00
16481;BME280;44634;54.110;12.138;2023-03-23T02:57:55;100243.38;;;12.08;100.00
16481;BME280;44634;54.110;12.138;2023-03-23T03:00:22;100248.88;;;12.14;100.00
16481;BME280;44634;54.110;12.138;2023-03-23T03:02:50;100241.28;;;11.85;100.00
16481;BME280;44634;54.110;12.138;2023-03-23T03:05:26;100231.84;;;12.25;100.00
16481;BME280;44634;54.110;12.138;2023-03-23T03:08:02;100228.16;;;12.10;100.00
16481;BME280;44634;54.110;12.138;2023-03-23T03:10:38;100223.69;;;12.10;100.00
16481;BME280;44634;54.110;12.138;2023-03-23T03:13:14;100197.47;;;12.66;100.00
16481;BME280;44634;54.110;12.138;2023-03-23T03:15:47;100183.69;;;12.30;100.00
16481;BME280;44634;54.110;12.138;2023-03-23T03:18:20;100160.16;;;12.43;100.00
16481;BME280;44634;54.110;12.138;2023-03-23T03:20:50;100182.88;;;11.95;100.00
16481;BME280;44634;54.110;12.138;2023-03-23T03:23:23;100173.31;;;12.02;100.00
16481;BME280;44634;54.110;12.138;2023-03-23T03:25:50;100183.25;;;12.08;100.00
16481;BME280;44634;54.110;12.138;2023-03-23T03:28:20;100178.13;;;12.15;100.00
16481;BME280;44634;54.110;12.138;2023-03-23T03:30:49;100186.28;;;12.21;100.00
16481;BME280;44634;54.110;12.138;2023-03-23T03:33:19;100203.31;;;11.77;100.00
16481;BME280;44634;54.110;12.138;2023-03-23T03:35:51;100239.34;;;11.70;100.00
16481;BME280;44634;54.110;12.138;2023-03-23T03:38:20;100247.19;;;12.13;100.00
16481;BME280;44634;54.110;12.138;2023-03-23T03:40:47;100235.94;;;12.11;100.00
16481;BME280;44634;54.110;12.138;2023-03-23T03:43:14;100229.38;;;11.63;100.00
16481;BME280;44634;54.110;12.138;2023-03-23T03:45:40;100240.56;;;12.09;100.00
16481;BME280;44634;54.110;12.138;2023-03-23T03:48:07;100252.34;;;12.15;100.00
16481;BME280;44634;54.110;12.138;2023-03-23T03:50:34;100237.53;;;12.30;100.00
16481;BME280;44634;54.110;12.138;2023-03-23T03:53:01;100225.59;;;12.34;100.00
16481;BME280;44634;54.110;12.138;2023-03-23T03:55:29;100223.97;;;11.99;100.00
16481;BME280;44634;54.110;12.138;2023-03-23T03:58:00;100238.25;;;12.06;100.00
16481;BME280;44634;54.110;12.138;2023-03-23T04:00:28;100240.50;;;11.93;100.00
16481;BME280;44634;54.110;12.138;2023-03-23T04:02:54;100275.97;;;12.00;100.00
16481;BME280;44634;54.110;12.138;2023-03-23T04:05:22;100291.97;;;12.16;100.00
16481;BME280;44634;54.110;12.138;2023-03-23T04:07:49;100278.59;;;12.00;100.00
16481;BME280;44634;54.110;12.138;2023-03-23T04:10:17;100273.88;;;11.86;100.00
16481;BME280;44634;54.110;12.138;2023-03-23T04:12:46;100309.16;;;12.12;100.00
16481;BME280;44634;54.110;12.138;2023-03-23T04:15:13;100301.03;;;11.80;100.00
16481;BME280;44634;54.110;12.138;2023-03-23T04:17:40;100328.56;;;11.87;100.00
16481;BME280;44634;54.110;12.138;2023-03-23T04:20:08;100308.59;;;11.75;100.00
16481;BME280;44634;54.110;12.138;2023-03-23T04:22:42;100314.28;;;12.14;100.00
16481;BME280;44634;54.110;12.138;2023-03-23T04:25:11;100308.81;;;12.07;100.00
16481;BME280;44634;54.110;12.138;2023-03-23T04:27:40;100312.69;;;11.95;100.00
16481;BME280;44634;54.110;12.138;2023-03-23T04:30:11;100319.81;;;11.95;100.00
16481;BME280;44634;54.110;12.138;2023-03-23T04:32:39;100323.38;;;12.03;100.00
16481;BME280;44634;54.110;12.138;2023-03-23T04:35:08;100317.25;;;12.11;100.00
16481;BME280;44634;54.110;12.138;2023-03-23T04:37:36;100303.16;;;12.02;100.00
16481;BME280;44634;54.110;12.138;2023-03-23T04:40:03;100281.56;;;11.89;100.00
16481;BME280;44634;54.110;12.138;2023-03-23T04:42:36;100294.94;;;11.70;100.00
16481;BME280;44634;54.110;12.138;2023-03-23T04:45:04;100322.00;;;11.99;100.00
16481;BME280;44634;54.110;12.138;2023-03-23T04:47:34;100322.84;;;12.34;100.00
16481;BME280;44634;54.110;12.138;2023-03-23T04:50:07;100322.13;;;12.24;100.00
16481;BME280;44634;54.110;12.138;2023-03-23T04:52:35;100319.28;;;12.17;100.00
16481;BME280;44634;54.110;12.138;2023-03-23T04:55:04;100313.75;;;12.02;100.00
16481;BME280;44634;54.110;12.138;2023-03-23T04:57:32;100305.47;;;11.79;100.00
16481;BME280;44634;54.110;12.138;2023-03-23T04:59:59;100316.09;;;12.13;100.00
16481;BME280;44634;54.110;12.138;2023-03-23T05:02:25;100305.81;;;12.02;100.00
16481;BME280;44634;54.110;12.138;2023-03-23T05:04:57;100290.31;;;11.89;100.00
16481;BME280;44634;54.110;12.138;2023-03-23T05:07:24;100303.50;;;12.07;100.00
16481;BME280;44634;54.110;12.138;2023-03-23T05:09:51;100288.63;;;12.14;100.00
16481;BME280;44634;54.110;12.138;2023-03-23T05:12:17;100281.56;;;11.89;100.00
16481;BME280;44634;54.110;12.138;2023-03-23T05:14:44;100283.47;;;12.13;100.00
16481;BME280;44634;54.110;12.138;2023-03-23T05:17:11;100295.56;;;12.07;100.00
16481;BME280;44634;54.110;12.138;2023-03-23T05:19:42;100287.06;;;12.38;100.00
16481;BME280;44634;54.110;12.138;2023-03-23T05:22:11;100292.75;;;11.83;100.00
16481;BME280;44634;54.110;12.138;2023-03-23T05:24:38;100310.34;;;12.18;100.00
16481;BME280;44634;54.110;12.138;2023-03-23T05:27:04;100332.31;;;12.10;100.00
16481;BME280;44634;54.110;12.138;2023-03-23T05:29:33;100323.88;;;12.41;100.00
16481;BME280;44634;54.110;12.138;2023-03-23T05:32:01;100310.94;;;12.04;100.00
16481;BME280;44634;54.110;12.138;2023-03-23T05:34:29;100323.25;;;12.55;100.00
16481;BME280;44634;54.110;12.138;2023-03-23T05:36:57;100319.72;;;12.38;100.00
16481;BME280;44634;54.110;12.138;2023-03-23T05:39:26;100335.63;;;12.04;100.00
16481;BME280;44634;54.110;12.138;2023-03-23T05:41:53;100319.75;;;12.12;100.00
16481;BME280;44634;54.110;12.138;2023-03-23T05:44:19;100303.69;;;12.14;100.00
16481;BME280;44634;54.110;12.138;2023-03-23T05:46:46;100327.41;;;12.15;100.00
16481;BME280;44634;54.110;12.138;2023-03-23T05:49:13;100315.44;;;12.11;100.00
16481;BME280;44634;54.110;12.138;2023-03-23T05:51:41;100315.34;;;12.21;100.00
16481;BME280;44634;54.110;12.138;2023-03-23T05:54:08;100309.59;;;12.34;100.00
16481;BME280;44634;54.110;12.138;2023-03-23T05:56:37;100323.13;;;12.23;100.00
16481;BME280;44634;54.110;12.138;2023-03-23T05:59:04;100330.53;;;12.45;100.00
16481;BME280;44634;54.110;12.138;2023-03-23T06:01:31;100287.34;;;12.27;100.00
16481;BME280;44634;54.110;12.138;2023-03-23T06:03:58;100298.31;;;12.32;100.00
16481;BME280;44634;54.110;12.138;2023-03-23T06:06:25;100278.47;;;12.44;100.00
16481;BME280;44634;54.110;12.138;2023-03-23T06:08:52;100279.69;;;12.66;100.00
16481;BME280;44634;54.110;12.138;2023-03-23T06:11:19;100288.41;;;12.42;100.00
16481;BME280;44634;54.110;12.138;2023-03-23T06:13:47;100278.19;;;12.55;100.00
16481;BME280;44634;54.110;12.138;2023-03-23T06:16:14;100281.44;;;12.41;100.00
16481;BME280;44634;54.110;12.138;2023-03-23T06:18:41;100296.06;;;12.53;100.00
16481;BME280;44634;54.110;12.138;2023-03-23T06:21:08;100270.63;;;12.85;100.00
16481;BME280;44634;54.110;12.138;2023-03-23T06:23:35;100255.34;;;12.62;100.00
16481;BME280;44634;54.110;12.138;2023-03-23T06:26:04;100253.88;;;12.84;100.00
16481;BME280;44634;54.110;12.138;2023-03-23T06:28:32;100254.03;;;12.82;100.00
16481;BME280;44634;54.110;12.138;2023-03-23T06:31:00;100261.81;;;12.60;100.00
16481;BME280;44634;54.110;12.138;2023-03-23T06:33:28;100242.03;;;12.54;100.00
16481;BME280;44634;54.110;12.138;2023-03-23T06:35:55;100244.38;;;12.57;100.00
16481;BME280;44634;54.110;12.138;2023-03-23T06:38:23;100216.22;;;12.72;100.00
16481;BME280;44634;54.110;12.138;2023-03-23T06:40:51;100218.38;;;12.85;100.00
16481;BME280;44634;54.110;12.138;2023-03-23T06:43:18;100183.56;;;13.04;100.00
16481;BME280;44634;54.110;12.138;2023-03-23T06:45:45;100178.59;;;12.77;100.00
16481;BME280;44634;54.110;12.138;2023-03-23T06:48:13;100190.19;;;12.68;100.00
16481;BME280;44634;54.110;12.138;2023-03-23T06:50:42;100196.84;;;13.04;100.00
16481;BME280;44634;54.110;12.138;2023-03-23T06:53:09;100184.25;;;12.90;100.00
16481;BME280;44634;54.110;12.138;2023-03-23T06:55:36;100153.22;;;12.99;100.00
16481;BME280;44634;54.110;12.138;2023-03-23T06:58:03;100136.09;;;13.34;100.00
16481;BME280;44634;54.110;12.138;2023-03-23T07:00:31;100129.31;;;13.07;100.00
16481;BME280;44634;54.110;12.138;2023-03-23T07:02:57;100127.69;;;12.90;100.00
16481;BME280;44634;54.110;12.138;2023-03-23T07:05:26;100123.00;;;13.24;100.00
16481;BME280;44634;54.110;12.138;2023-03-23T07:07:52;100096.13;;;13.11;100.00
16481;BME280;44634;54.110;12.138;2023-03-23T07:10:19;100094.13;;;13.29;100.00
16481;BME280;44634;54.110;12.138;2023-03-23T07:12:46;100066.44;;;13.24;100.00
16481;BME280;44634;54.110;12.138;2023-03-23T07:15:13;100056.47;;;13.34;100.00
16481;BME280;44634;54.110;12.138;2023-03-23T07:17:40;100088.03;;;13.21;100.00
16481;BME280;44634;54.110;12.138;2023-03-23T07:20:08;100114.88;;;13.09;100.00
16481;BME280;44634;54.110;12.138;2023-03-23T07:22:36;100089.50;;;13.23;100.00
16481;BME280;44634;54.110;12.138;2023-03-23T07:25:04;100076.91;;;13.17;100.00
16481;BME280;44634;54.110;12.138;2023-03-23T07:27:30;100079.88;;;13.14;100.00
16481;BME280;44634;54.110;12.138;2023-03-23T07:29:57;100083.19;;;13.24;100.00
16481;BME280;44634;54.110;12.138;2023-03-23T07:32:24;100105.09;;;13.26;100.00
16481;BME280;44634;54.110;12.138;2023-03-23T07:34:50;100071.34;;;13.43;100.00
16481;BME280;44634;54.110;12.138;2023-03-23T07:37:17;100069.50;;;13.52;100.00
16481;BME280;44634;54.110;12.138;2023-03-23T07:39:45;100045.59;;;13.44;100.00
16481;BME280;44634;54.110;12.138;2023-03-23T07:42:12;100013.31;;;13.63;100.00
16481;BME280;44634;54.110;12.138;2023-03-23T07:44:38;100020.06;;;13.43;100.00
16481;BME280;44634;54.110;12.138;2023-03-23T07:47:05;100033.75;;;13.31;100.00
16481;BME280;44634;54.110;12.138;2023-03-23T07:49:32;99978.69;;;13.79;100.00
16481;BME280;44634;54.110;12.138;2023-03-23T07:51:59;99963.81;;;13.93;100.00
16481;BME280;44634;54.110;12.138;2023-03-23T07:54:28;99949.09;;;13.82;100.00
16481;BME280;44634;54.110;12.138;2023-03-23T07:56:56;99913.94;;;14.18;100.00
16481;BME280;44634;54.110;12.138;2023-03-23T07:59:23;99915.78;;;13.94;100.00
16481;BME280;44634;54.110;12.138;2023-03-23T08:01:49;99916.47;;;13.88;100.00
16481;BME280;44634;54.110;12.138;2023-03-23T08:04:16;99869.06;;;14.15;100.00
16481;BME280;44634;54.110;12.138;2023-03-23T08:06:43;99849.72;;;13.91;100.00
16481;BME280;44634;54.110;12.138;2023-03-23T08:09:09;99874.13;;;13.72;100.00
16481;BME280;44634;54.110;12.138;2023-03-23T08:11:37;99845.72;;;14.25;100.00
16481;BME280;44634;54.110;12.138;2023-03-23T08:14:05;99832.22;;;14.26;100.00
16481;BME280;44634;54.110;12.138;2023-03-23T08:16:32;99817.41;;;14.32;100.00
16481;BME280;44634;54.110;12.138;2023-03-23T08:18:59;99780.53;;;14.44;100.00
16481;BME280;44634;54.110;12.138;2023-03-23T08:21:26;99783.94;;;14.08;100.00
16481;BME280;44634;54.110;12.138;2023-03-23T08:23:53;99786.97;;;14.49;100.00
16481;BME280;44634;54.110;12.138;2023-03-23T08:26:20;99745.28;;;14.42;100.00
16481;BME280;44634;54.110;12.138;2023-03-23T08:28:47;99717.63;;;14.94;100.00
16481;BME280;44634;54.110;12.138;2023-03-23T08:31:15;99670.41;;;15.02;100.00
16481;BME280;44634;54.110;12.138;2023-03-23T08:33:42;99640.78;;;15.12;100.00
16481;BME280;44634;54.110;12.138;2023-03-23T08:36:09;99577.44;;;15.76;100.00
16481;BME280;44634;54.110;12.138;2023-03-23T08:38:36;99560.69;;;15.83;100.00
16481;BME280;44634;54.110;12.138;2023-03-23T08:41:05;99509.91;;;15.50;100.00
16481;BME280;44634;54.110;12.138;2023-03-23T08:43:33;99524.47;;;15.54;100.00
16481;BME280;44634;54.110;12.138;2023-03-23T08:46:00;99530.94;;;14.69;100.00
16481;BME280;44634;54.110;12.138;2023-03-23T08:48:33;99538.25;;;15.23;100.00
16481;BME280;44634;54.110;12.138;2023-03-23T08:51:00;99568.63;;;15.00;100.00
16481;BME280;44634;54.110;12.138;2023-03-23T08:53:27;99552.81;;;14.92;100.00
16481;BME280;44634;54.110;12.138;2023-03-23T08:55:56;99544.47;;;14.74;100.00
16481;BME280;44634;54.110;12.138;2023-03-23T08:58:23;99532.72;;;15.24;100.00
16481;BME280;44634;54.110;12.138;2023-03-23T09:00:49;99529.19;;;15.52;100.00
16481;BME280;44634;54.110;12.138;2023-03-23T09:03:16;99468.00;;;16.77;100.00
16481;BME280;44634;54.110;12.138;2023-03-23T09:05:44;99439.09;;;16.68;100.00
16481;BME280;44634;54.110;12.138;2023-03-23T09:08:11;99451.63;;;16.54;100.00
16481;BME280;44634;54.110;12.138;2023-03-23T09:10:38;99433.97;;;16.00;100.00
16481;BME280;44634;54.110;12.138;2023-03-23T09:13:05;99456.75;;;15.96;100.00
16481;BME280;44634;54.110;12.138;2023-03-23T09:15:32;99423.94;;;16.22;100.00
16481;BME280;44634;54.110;12.138;2023-03-23T09:17:59;99444.22;;;15.90;100.00
16481;BME280;44634;54.110;12.138;2023-03-23T09:20:27;99462.03;;;15.76;100.00
16481;BME280;44634;54.110;12.138;2023-03-23T09:22:57;99437.56;;;15.53;100.00
16481;BME280;44634;54.110;12.138;2023-03-23T09:25:27;99459.38;;;15.69;100.00
16481;BME280;44634;54.110;12.138;2023-03-23T09:27:55;99461.66;;;15.79;100.00
16481;BME280;44634;54.110;12.138;2023-03-23T09:30:25;99466.78;;;15.33;100.00
16481;BME280;44634;54.110;12.138;2023-03-23T09:32:53;99450.91;;;15.53;100.00
16481;BME280;44634;54.110;12.138;2023-03-23T09:35:20;99462.38;;;15.53;100.00
16481;BME280;44634;54.110;12.138;2023-03-23T09:37:49;99466.53;;;15.14;100.00
16481;BME280;44634;54.110;12.138;2023-03-23T09:40:19;99444.09;;;15.43;100.00
16481;BME280;44634;54.110;12.138;2023-03-23T09:42:58;99450.25;;;15.44;100.00
16481;BME280;44634;54.110;12.138;2023-03-23T09:45:33;99454.41;;;15.05;100.00
16481;BME280;44634;54.110;12.138;2023-03-23T09:48:22;99436.34;;;15.55;100.00
16481;BME280;44634;54.110;12.138;2023-03-23T09:50:57;99487.31;;;15.39;100.00
16481;BME280;44634;54.110;12.138;2023-03-23T09:53:31;99490.19;;;15.44;100.00
16481;BME280;44634;54.110;12.138;2023-03-23T09:56:03;99467.06;;;15.03;100.00
16481;BME280;44634;54.110;12.138;2023-03-23T09:58:36;99496.75;;;15.35;100.00
16481;BME280;44634;54.110;12.138;2023-03-23T10:01:10;99499.06;;;14.47;100.00
16481;BME280;44634;54.110;12.138;2023-03-23T10:03:40;99539.41;;;14.51;100.00
16481;BME280;44634;54.110;12.138;2023-03-23T10:06:10;99528.03;;;13.99;100.00
16481;BME280;44634;54.110;12.138;2023-03-23T10:08:41;99512.47;;;13.96;100.00
16481;BME280;44634;54.110;12.138;2023-03-23T10:11:16;99515.66;;;13.49;100.00
16481;BME280;44634;54.110;12.138;2023-03-23T10:13:56;99537.91;;;13.48;100.00
16481;BME280;44634;54.110;12.138;2023-03-23T10:16:28;99554.38;;;13.29;100.00
16481;BME280;44634;54.110;12.138;2023-03-23T10:19:01;99581.72;;;13.15;100.00
16481;BME280;44634;54.110;12.138;2023-03-23T10:21:33;99582.22;;;13.48;100.00
16481;BME280;44634;54.110;12.138;2023-03-23T10:24:03;99790.38;;;13.16;100.00
16481;BME280;44634;54.110;12.138;2023-03-23T10:26:43;99690.78;;;13.28;100.00
16481;BME280;44634;54.110;12.138;2023-03-23T10:29:16;99636.28;;;13.17;100.00
16481;BME280;44634;54.110;12.138;2023-03-23T10:31:47;99611.31;;;13.26;100.00
16481;BME280;44634;54.110;12.138;2023-03-23T10:34:21;99612.06;;;13.50;100.00
16481;BME280;44634;54.110;12.138;2023-03-23T10:36:55;99556.22;;;14.37;100.00
16481;BME280;44634;54.110;12.138;2023-03-23T10:39:26;99551.28;;;13.91;100.00
16481;BME280;44634;54.110;12.138;2023-03-23T10:41:55;99512.50;;;14.67;100.00
16481;BME280;44634;54.110;12.138;2023-03-23T10:44:28;99499.69;;;14.77;100.00
16481;BME280;44634;54.110;12.138;2023-03-23T10:46:59;99531.50;;;14.43;100.00
16481;BME280;44634;54.110;12.138;2023-03-23T10:49:42;99504.84;;;14.85;100.00
16481;BME280;44634;54.110;12.138;2023-03-23T10:52:22;99490.41;;;15.01;100.00
16481;BME280;44634;54.110;12.138;2023-03-23T10:54:54;99503.16;;;15.12;100.00
16481;BME280;44634;54.110;12.138;2023-03-23T10:57:24;99502.69;;;14.96;100.00
16481;BME280;44634;54.110;12.138;2023-03-23T10:59:58;99505.34;;;15.37;100.00
16481;BME280;44634;54.110;12.138;2023-03-23T11:02:25;99521.78;;;15.06;100.00
16481;BME280;44634;54.110;12.138;2023-03-23T11:05:00;99518.66;;;14.68;100.00
16481;BME280;44634;54.110;12.138;2023-03-23T11:07:32;99503.84;;;15.21;100.00
16481;BME280;44634;54.110;12.138;2023-03-23T11:10:07;99511.19;;;15.60;100.00
16481;BME280;44634;54.110;12.138;2023-03-23T11:12:44;99539.16;;;15.77;100.00
16481;BME280;44634;54.110;12.138;2023-03-23T11:15:29;99539.38;;;15.89;100.00
16481;BME280;44634;54.110;12.138;2023-03-23T11:17:58;99530.72;;;15.74;100.00
16481;BME280;44634;54.110;12.138;2023-03-23T11:20:26;99538.84;;;17.00;100.00
16481;BME280;44634;54.110;12.138;2023-03-23T11:22:54;99789.09;;;17.65;100.00
16481;BME280;44634;54.110;12.138;2023-03-23T11:25:21;99999.31;;;17.73;100.00
16481;BME280;44634;54.110;12.138;2023-03-23T11:27:50;99975.69;;;16.87;100.00
16481;BME280;44634;54.110;12.138;2023-03-23T11:30:23;99953.88;;;16.77;100.00
16481;BME280;44634;54.110;12.138;2023-03-23T11:32:52;99950.22;;;16.29;100.00
16481;BME280;44634;54.110;12.138;2023-03-23T11:35:23;99957.63;;;17.31;100.00
16481;BME280;44634;54.110;12.138;2023-03-23T11:37:54;99961.66;;;16.72;100.00
16481;BME280;44634;54.110;12.138;2023-03-23T11:40:24;99958.34;;;17.66;100.00
16481;BME280;44634;54.110;12.138;2023-03-23T11:42:59;100005.97;;;18.96;100.00
16481;BME280;44634;54.110;12.138;2023-03-23T11:45:32;100027.59;;;18.88;100.00
16481;BME280;44634;54.110;12.138;2023-03-23T11:48:06;100022.63;;;17.99;100.00
16481;BME280;44634;54.110;12.138;2023-03-23T11:50:44;100021.00;;;18.77;100.00
16481;BME280;44634;54.110;12.138;2023-03-23T11:53:15;100039.78;;;19.61;100.00
16481;BME280;44634;54.110;12.138;2023-03-23T11:55:55;100048.84;;;18.76;100.00
16481;BME280;44634;54.110;12.138;2023-03-23T11:58:25;100027.28;;;17.77;100.00
16481;BME280;44634;54.110;12.138;2023-03-23T12:01:00;100013.38;;;16.99;100.00
16481;BME280;44634;54.110;12.138;2023-03-23T12:03:58;100003.63;;;16.63;100.00
16481;BME280;44634;54.110;12.138;2023-03-23T12:06:37;99989.75;;;15.97;100.00
16481;BME280;44634;54.110;12.138;2023-03-23T12:09:16;99970.97;;;16.05;100.00
16481;BME280;44634;54.110;12.138;2023-03-23T12:11:57;99975.34;;;16.13;100.00
16481;BME280;44634;54.110;12.138;2023-03-23T12:14:36;99949.81;;;16.53;100.00
16481;BME280;44634;54.110;12.138;2023-03-23T12:17:11;99974.00;;;16.24;100.00
16481;BME280;44634;54.110;12.138;2023-03-23T12:19:49;99972.78;;;16.54;100.00
16481;BME280;44634;54.110;12.138;2023-03-23T12:22:35;99990.38;;;16.70;100.00
16481;BME280;44634;54.110;12.138;2023-03-23T12:25:16;99991.63;;;16.74;100.00
16481;BME280;44634;54.110;12.138;2023-03-23T12:27:52;99989.06;;;16.10;100.00
16481;BME280;44634;54.110;12.138;2023-03-23T12:30:30;99970.78;;;16.07;100.00
16481;BME280;44634;54.110;12.138;2023-03-23T12:33:11;100011.31;;;16.45;100.00
16481;BME280;44634;54.110;12.138;2023-03-23T12:35:49;100000.94;;;16.08;100.00
16481;BME280;44634;54.110;12.138;2023-03-23T12:38:32;99981.81;;;16.04;100.00
16481;BME280;44634;54.110;12.138;2023-03-23T12:41:08;100000.59;;;15.74;100.00
16481;BME280;44634;54.110;12.138;2023-03-23T12:43:46;99984.44;;;15.97;100.00
16481;BME280;44634;54.110;12.138;2023-03-23T12:46:26;99982.03;;;15.81;100.00
16481;BME280;44634;54.110;12.138;2023-03-23T12:49:01;99984.47;;;15.61;100.00
16481;BME280;44634;54.110;12.138;2023-03-23T12:51:34;99987.66;;;15.71;100.00
16481;BME280;44634;54.110;12.138;2023-03-23T12:54:09;99979.88;;;15.55;100.00